This is the latest recevied weather packets stored in our database for station/object JM1YTT-13. If no packets are shown the sender has not sent any weather packets the latest 10 day(s).
| Time | Temp. | Humidity | Pressure | Rain* | Wind** | Luminosity | Snow |
|---|---|---|---|---|---|---|---|
| 1788516764 | 21.67° C | 94% | 1009.8 hPa | 0 mm | - | - | - |
| 1788514964 | 21.67° C | 94% | 1009.4 hPa | 0 mm | - | - | - |
| 1788513164 | 21.67° C | 94% | 1009.2 hPa | 0 mm | - | - | - |
| 1788509563 | 22.22° C | 93% | 1009.2 hPa | 0 mm | - | - | - |
| 1788507764 | 22.78° C | 91% | 1009.2 hPa | 0 mm | - | - | - |
| 1788505963 | 23.89° C | 89% | 1009.5 hPa | 0 mm | - | - | - |
| 1788504164 | 24.44° C | 88% | 1008.5 hPa | 0 mm | - | - | - |
| 1788502363 | 24.44° C | 88% | 1008.7 hPa | 0 mm | - | - | - |
| 1788500564 | 24.44° C | 85% | 1008.7 hPa | 0 mm | - | - | - |
| 1788498763 | 25.56° C | 84% | 1008.7 hPa | 0 mm | - | - | - |
| 1788496963 | 26.11° C | 84% | 1008.2 hPa | 0 mm | - | - | - |
| 1788495164 | 26.67° C | 84% | 1008.4 hPa | 0 mm | - | - | - |
| 1788493364 | 27.22° C | 84% | 1008.8 hPa | 0 mm | - | - | - |
| 1788491563 | 26.67° C | 87% | 1008.8 hPa | 0 mm | - | - | - |
| 1788487963 | 24.44° C | 97% | 1010.1 hPa | 0 mm | - | - | - |
| 1788486164 | 23.89° C | 97% | 1009.5 hPa | 0 mm | - | - | - |
| 1788484364 | 23.89° C | 97% | 1009.9 hPa | 0 mm | - | - | - |
| 1788480764 | 23.33° C | 97% | 1009.4 hPa | 0 mm | - | - | - |
| 1788469963 | 21.11° C | 97% | 1007.6 hPa | 0 mm | - | - | - |
| 1788464564 | 21.11° C | 97% | 1007.6 hPa | 0 mm | - | - | - |
| 1788444764 | 21.67° C | 97% | 1006.9 hPa | 0 mm | - | - | - |
| 1788433964 | 22.78° C | 96% | 1008.8 hPa | 0 mm | - | - | - |
| 1788430363 | 22.78° C | 96% | 1008.3 hPa | 0 mm | - | - | - |
| 1788426763 | 23.33° C | 95% | 1009 hPa | 0 mm | - | - | - |
| 1788423163 | 24.44° C | 93% | 1008.7 hPa | 0 mm | - | - | - |
* Rain latest hour (hover to see other rain measurements)
** Current wind speed in m/s (hover to see current wind gust speed)